sensor_id;sensor_type;location;lat;lon;timestamp;temperature;humidity
9107;DHT22;4589;48.690;8.952;2023-03-02T00:00:06;-2.10;99.90
9107;DHT22;4589;48.690;8.952;2023-03-02T00:02:41;-1.90;99.90
9107;DHT22;4589;48.690;8.952;2023-03-02T00:19:55;-2.00;99.90
9107;DHT22;4589;48.690;8.952;2023-03-02T00:37:16;-1.90;99.90
9107;DHT22;4589;48.690;8.952;2023-03-02T00:39:41;-2.00;99.90
9107;DHT22;4589;48.690;8.952;2023-03-02T00:42:07;-1.90;99.90
9107;DHT22;4589;48.690;8.952;2023-03-02T00:44:33;-1.80;99.90
9107;DHT22;4589;48.690;8.952;2023-03-02T00:51:50;-1.90;99.90
9107;DHT22;4589;48.690;8.952;2023-03-02T00:54:16;-2.00;99.90
9107;DHT22;4589;48.690;8.952;2023-03-02T00:56:42;-2.20;99.90
9107;DHT22;4589;48.690;8.952;2023-03-02T00:59:09;-2.30;99.90
9107;DHT22;4589;48.690;8.952;2023-03-02T01:01:55;-2.00;99.90
9107;DHT22;4589;48.690;8.952;2023-03-02T01:04:26;-2.10;99.90
9107;DHT22;4589;48.690;8.952;2023-03-02T01:06:55;-2.10;99.90
9107;DHT22;4589;48.690;8.952;2023-03-02T01:14:12;-1.90;99.90
9107;DHT22;4589;48.690;8.952;2023-03-02T01:23:55;-2.00;99.90
9107;DHT22;4589;48.690;8.952;2023-03-02T01:26:21;-1.90;99.90
9107;DHT22;4589;48.690;8.952;2023-03-02T01:28:47;-1.70;99.90
9107;DHT22;4589;48.690;8.952;2023-03-02T01:33:38;-1.90;99.90
9107;DHT22;4589;48.690;8.952;2023-03-02T01:38:30;-2.00;99.90
9107;DHT22;4589;48.690;8.952;2023-03-02T01:50:00;-2.00;99.90
9107;DHT22;4589;48.690;8.952;2023-03-02T01:54:56;-2.10;99.90
9107;DHT22;4589;48.690;8.952;2023-03-02T01:57:30;-2.10;99.90
9107;DHT22;4589;48.690;8.952;2023-03-02T02:02:25;-2.20;99.90
9107;DHT22;4589;48.690;8.952;2023-03-02T02:04:52;-2.20;99.90
9107;DHT22;4589;48.690;8.952;2023-03-02T02:09:46;-2.20;99.90
9107;DHT22;4589;48.690;8.952;2023-03-02T02:12:18;-2.20;99.90
9107;DHT22;4589;48.690;8.952;2023-03-02T02:14:45;-2.20;99.90
9107;DHT22;4589;48.690;8.952;2023-03-02T02:17:11;-2.20;99.90
9107;DHT22;4589;48.690;8.952;2023-03-02T02:26:56;-2.20;99.90
9107;DHT22;4589;48.690;8.952;2023-03-02T02:32:09;-2.20;99.90
9107;DHT22;4589;48.690;8.952;2023-03-02T02:37:22;-2.20;99.90
9107;DHT22;4589;48.690;8.952;2023-03-02T02:44:45;-2.20;99.90
9107;DHT22;4589;48.690;8.952;2023-03-02T02:52:10;-2.20;99.90
9107;DHT22;4589;48.690;8.952;2023-03-02T03:04:30;-2.20;99.90
9107;DHT22;4589;48.690;8.952;2023-03-02T03:06:58;-2.20;99.90
9107;DHT22;4589;48.690;8.952;2023-03-02T03:09:25;-2.20;99.90
9107;DHT22;4589;48.690;8.952;2023-03-02T03:11:55;-2.20;99.90
9107;DHT22;4589;48.690;8.952;2023-03-02T03:14:27;-2.20;99.90
9107;DHT22;4589;48.690;8.952;2023-03-02T03:19:26;-2.30;99.90
9107;DHT22;4589;48.690;8.952;2023-03-02T03:21:55;-2.30;99.90
9107;DHT22;4589;48.690;8.952;2023-03-02T03:31:40;-2.30;99.90
9107;DHT22;4589;48.690;8.952;2023-03-02T03:41:25;-2.50;99.90
9107;DHT22;4589;48.690;8.952;2023-03-02T03:58:29;-2.50;99.90
9107;DHT22;4589;48.690;8.952;2023-03-02T04:10:40;-2.50;99.90
9107;DHT22;4589;48.690;8.952;2023-03-02T04:20:26;-2.50;99.90
9107;DHT22;4589;48.690;8.952;2023-03-02T04:27:48;-2.60;99.90
9107;DHT22;4589;48.690;8.952;2023-03-02T04:35:10;-2.60;99.90
9107;DHT22;4589;48.690;8.952;2023-03-02T04:40:01;-2.50;99.90
9107;DHT22;4589;48.690;8.952;2023-03-02T04:57:07;-2.70;99.90
9107;DHT22;4589;48.690;8.952;2023-03-02T05:02:00;-2.70;99.90
9107;DHT22;4589;48.690;8.952;2023-03-02T05:04:26;-2.70;99.90
9107;DHT22;4589;48.690;8.952;2023-03-02T05:06:52;-2.70;99.90
9107;DHT22;4589;48.690;8.952;2023-03-02T05:14:11;-2.60;99.90
9107;DHT22;4589;48.690;8.952;2023-03-02T05:16:38;-2.70;99.90
9107;DHT22;4589;48.690;8.952;2023-03-02T05:19:06;-2.60;99.90
9107;DHT22;4589;48.690;8.952;2023-03-02T05:33:50;-2.50;99.90
9107;DHT22;4589;48.690;8.952;2023-03-02T05:41:08;-2.40;99.90
9107;DHT22;4589;48.690;8.952;2023-03-02T05:46:00;-2.10;99.90
9107;DHT22;4589;48.690;8.952;2023-03-02T05:48:30;-2.40;99.90
9107;DHT22;4589;48.690;8.952;2023-03-02T05:53:22;-2.40;99.90
9107;DHT22;4589;48.690;8.952;2023-03-02T05:58:16;-2.30;99.90
9107;DHT22;4589;48.690;8.952;2023-03-02T06:00:42;-2.10;99.90
9107;DHT22;4589;48.690;8.952;2023-03-02T06:10:26;-2.00;99.90
9107;DHT22;4589;48.690;8.952;2023-03-02T06:15:18;-1.80;99.90
9107;DHT22;4589;48.690;8.952;2023-03-02T06:22:44;-1.70;99.90
9107;DHT22;4589;48.690;8.952;2023-03-02T06:30:04;-1.60;99.90
9107;DHT22;4589;48.690;8.952;2023-03-02T06:34:59;-1.50;99.90
9107;DHT22;4589;48.690;8.952;2023-03-02T06:37:26;-1.50;99.90
9107;DHT22;4589;48.690;8.952;2023-03-02T06:44:47;-1.40;99.90
9107;DHT22;4589;48.690;8.952;2023-03-02T06:54:32;-1.20;99.90
9107;DHT22;4589;48.690;8.952;2023-03-02T06:59:24;-1.10;99.90
9107;DHT22;4589;48.690;8.952;2023-03-02T07:21:19;-0.70;99.90
9107;DHT22;4589;48.690;8.952;2023-03-02T07:28:37;-0.60;99.90
9107;DHT22;4589;48.690;8.952;2023-03-02T07:31:08;-0.40;99.90
9107;DHT22;4589;48.690;8.952;2023-03-02T07:43:18;-0.20;99.90
9107;DHT22;4589;48.690;8.952;2023-03-02T08:00:20;0.10;99.90
9107;DHT22;4589;48.690;8.952;2023-03-02T08:10:05;0.30;99.90
9107;DHT22;4589;48.690;8.952;2023-03-02T08:27:08;0.50;99.90
9107;DHT22;4589;48.690;8.952;2023-03-02T08:41:51;0.50;99.90
9107;DHT22;4589;48.690;8.952;2023-03-02T08:56:32;0.90;99.90
9107;DHT22;4589;48.690;8.952;2023-03-02T08:59:01;1.00;99.90
9107;DHT22;4589;48.690;8.952;2023-03-02T09:01:29;1.20;99.90
9107;DHT22;4589;48.690;8.952;2023-03-02T09:03:56;1.20;99.90
9107;DHT22;4589;48.690;8.952;2023-03-02T09:08:49;1.50;99.90
9107;DHT22;4589;48.690;8.952;2023-03-02T09:11:15;1.60;99.90
9107;DHT22;4589;48.690;8.952;2023-03-02T09:13:41;1.80;99.90
9107;DHT22;4589;48.690;8.952;2023-03-02T09:16:08;1.90;99.90
9107;DHT22;4589;48.690;8.952;2023-03-02T09:23:27;2.20;99.90
9107;DHT22;4589;48.690;8.952;2023-03-02T09:25:53;2.30;99.90
9107;DHT22;4589;48.690;8.952;2023-03-02T09:28:19;2.40;99.90
9107;DHT22;4589;48.690;8.952;2023-03-02T09:30:50;2.70;99.90
9107;DHT22;4589;48.690;8.952;2023-03-02T09:33:17;3.00;99.90
9107;DHT22;4589;48.690;8.952;2023-03-02T09:35:43;2.80;99.90
9107;DHT22;4589;48.690;8.952;2023-03-02T09:38:10;3.40;99.90
9107;DHT22;4589;48.690;8.952;2023-03-02T10:01:53;4.40;99.90
9107;DHT22;4589;48.690;8.952;2023-03-02T10:11:58;4.70;99.90
9107;DHT22;4589;48.690;8.952;2023-03-02T10:14:40;4.90;99.90
9107;DHT22;4589;48.690;8.952;2023-03-02T10:19:54;4.90;99.90
9107;DHT22;4589;48.690;8.952;2023-03-02T10:22:33;5.00;99.90
9107;DHT22;4589;48.690;8.952;2023-03-02T10:28:19;5.20;99.90
9107;DHT22;4589;48.690;8.952;2023-03-02T10:35:48;5.70;99.90
9107;DHT22;4589;48.690;8.952;2023-03-02T10:38:22;5.90;99.90
9107;DHT22;4589;48.690;8.952;2023-03-02T10:40:58;6.00;99.90
9107;DHT22;4589;48.690;8.952;2023-03-02T10:46:02;6.30;99.90
9107;DHT22;4589;48.690;8.952;2023-03-02T10:50:56;6.00;99.90
9107;DHT22;4589;48.690;8.952;2023-03-02T10:55:52;6.00;99.90
9107;DHT22;4589;48.690;8.952;2023-03-02T11:01:03;6.00;99.90
9107;DHT22;4589;48.690;8.952;2023-03-02T11:05:56;6.00;99.90
9107;DHT22;4589;48.690;8.952;2023-03-02T11:08:25;6.30;99.90
9107;DHT22;4589;48.690;8.952;2023-03-02T11:10:59;6.30;99.90
9107;DHT22;4589;48.690;8.952;2023-03-02T11:13:28;6.20;99.90
9107;DHT22;4589;48.690;8.952;2023-03-02T11:34:42;6.70;99.90
9107;DHT22;4589;48.690;8.952;2023-03-02T11:44:45;7.00;99.90
9107;DHT22;4589;48.690;8.952;2023-03-02T11:57:28;8.10;99.90
9107;DHT22;4589;48.690;8.952;2023-03-02T12:02:23;8.00;99.90
9107;DHT22;4589;48.690;8.952;2023-03-02T12:10:01;8.00;99.90
9107;DHT22;4589;48.690;8.952;2023-03-02T12:22:31;8.20;99.90
9107;DHT22;4589;48.690;8.952;2023-03-02T12:25:25;8.60;99.90
9107;DHT22;4589;48.690;8.952;2023-03-02T12:27:52;8.90;99.90
9107;DHT22;4589;48.690;8.952;2023-03-02T12:30:20;9.00;99.90
9107;DHT22;4589;48.690;8.952;2023-03-02T12:53:47;14.90;99.90
9107;DHT22;4589;48.690;8.952;2023-03-02T12:58:50;16.10;99.90
9107;DHT22;4589;48.690;8.952;2023-03-02T13:03:47;17.60;99.90
9107;DHT22;4589;48.690;8.952;2023-03-02T13:06:14;16.40;99.90
9107;DHT22;4589;48.690;8.952;2023-03-02T13:08:44;16.70;99.90
9107;DHT22;4589;48.690;8.952;2023-03-02T13:11:11;15.60;99.90
9107;DHT22;4589;48.690;8.952;2023-03-02T13:13:42;15.10;99.90
9107;DHT22;4589;48.690;8.952;2023-03-02T13:16:23;14.30;99.90
9107;DHT22;4589;48.690;8.952;2023-03-02T13:21:18;11.80;99.90
9107;DHT22;4589;48.690;8.952;2023-03-02T13:29:18;11.40;99.90
9107;DHT22;4589;48.690;8.952;2023-03-02T13:31:45;11.80;99.90
9107;DHT22;4589;48.690;8.952;2023-03-02T13:36:47;11.80;99.90
9107;DHT22;4589;48.690;8.952;2023-03-02T13:41:58;12.00;99.90
9107;DHT22;4589;48.690;8.952;2023-03-02T13:44:34;12.10;99.90
9107;DHT22;4589;48.690;8.952;2023-03-02T13:47:01;11.70;99.90
9107;DHT22;4589;48.690;8.952;2023-03-02T13:49:34;11.40;99.90
9107;DHT22;4589;48.690;8.952;2023-03-02T13:52:05;11.10;99.90
9107;DHT22;4589;48.690;8.952;2023-03-02T13:54:36;11.10;99.90
9107;DHT22;4589;48.690;8.952;2023-03-02T13:57:03;11.50;99.90
9107;DHT22;4589;48.690;8.952;2023-03-02T13:59:29;11.30;99.90
9107;DHT22;4589;48.690;8.952;2023-03-02T14:01:59;10.70;99.90
9107;DHT22;4589;48.690;8.952;2023-03-02T14:04:25;10.60;99.90
9107;DHT22;4589;48.690;8.952;2023-03-02T14:26:33;9.10;99.90
9107;DHT22;4589;48.690;8.952;2023-03-02T14:29:02;9.00;99.90
9107;DHT22;4589;48.690;8.952;2023-03-02T14:33:55;8.70;99.90
9107;DHT22;4589;48.690;8.952;2023-03-02T14:36:29;9.10;99.90
9107;DHT22;4589;48.690;8.952;2023-03-02T14:48:41;7.80;99.90
9107;DHT22;4589;48.690;8.952;2023-03-02T15:10:48;8.30;99.90
9107;DHT22;4589;48.690;8.952;2023-03-02T15:13:14;8.20;99.90
9107;DHT22;4589;48.690;8.952;2023-03-02T15:18:07;8.20;99.90
9107;DHT22;4589;48.690;8.952;2023-03-02T15:27:54;7.60;99.90
9107;DHT22;4589;48.690;8.952;2023-03-02T15:37:40;7.50;99.90
9107;DHT22;4589;48.690;8.952;2023-03-02T15:42:32;7.20;99.90
9107;DHT22;4589;48.690;8.952;2023-03-02T15:44:58;7.30;99.90
9107;DHT22;4589;48.690;8.952;2023-03-02T15:52:16;7.40;99.90
9107;DHT22;4589;48.690;8.952;2023-03-02T15:54:44;7.30;99.90
9107;DHT22;4589;48.690;8.952;2023-03-02T16:04:29;7.00;99.90
9107;DHT22;4589;48.690;8.952;2023-03-02T16:06:55;6.80;99.90
9107;DHT22;4589;48.690;8.952;2023-03-02T16:11:48;6.60;99.90
9107;DHT22;4589;48.690;8.952;2023-03-02T16:16:41;6.60;99.90
9107;DHT22;4589;48.690;8.952;2023-03-02T16:19:10;6.50;99.90
9107;DHT22;4589;48.690;8.952;2023-03-02T16:24:04;6.50;99.90
9107;DHT22;4589;48.690;8.952;2023-03-02T16:26:35;6.20;99.90
9107;DHT22;4589;48.690;8.952;2023-03-02T16:29:02;6.00;99.90
9107;DHT22;4589;48.690;8.952;2023-03-02T16:31:28;5.90;99.90
9107;DHT22;4589;48.690;8.952;2023-03-02T16:33:56;5.80;99.90
9107;DHT22;4589;48.690;8.952;2023-03-02T16:36:23;5.70;99.90
9107;DHT22;4589;48.690;8.952;2023-03-02T16:38:49;5.60;99.90
9107;DHT22;4589;48.690;8.952;2023-03-02T16:41:19;5.50;99.90
9107;DHT22;4589;48.690;8.952;2023-03-02T16:43:48;5.40;99.90
9107;DHT22;4589;48.690;8.952;2023-03-02T16:46:15;5.20;99.90
9107;DHT22;4589;48.690;8.952;2023-03-02T16:48:41;5.10;99.90
9107;DHT22;4589;48.690;8.952;2023-03-02T17:08:11;4.30;99.90
9107;DHT22;4589;48.690;8.952;2023-03-02T17:10:39;4.20;99.90
9107;DHT22;4589;48.690;8.952;2023-03-02T17:15:31;4.00;99.90
9107;DHT22;4589;48.690;8.952;2023-03-02T17:17:57;3.80;99.90
9107;DHT22;4589;48.690;8.952;2023-03-02T17:20:22;3.80;99.90
9107;DHT22;4589;48.690;8.952;2023-03-02T17:22:48;3.70;99.90
9107;DHT22;4589;48.690;8.952;2023-03-02T17:30:08;3.40;99.90
9107;DHT22;4589;48.690;8.952;2023-03-02T17:35:03;3.30;99.90
9107;DHT22;4589;48.690;8.952;2023-03-02T17:47:14;2.90;99.90
9107;DHT22;4589;48.690;8.952;2023-03-02T17:49:40;3.00;99.90
9107;DHT22;4589;48.690;8.952;2023-03-02T18:09:11;2.40;99.90
9107;DHT22;4589;48.690;8.952;2023-03-02T18:11:37;2.40;99.90
9107;DHT22;4589;48.690;8.952;2023-03-02T18:18:55;2.30;99.90
9107;DHT22;4589;48.690;8.952;2023-03-02T18:21:22;2.30;99.90
9107;DHT22;4589;48.690;8.952;2023-03-02T18:26:14;2.60;99.90
9107;DHT22;4589;48.690;8.952;2023-03-02T18:28:40;2.20;99.90
9107;DHT22;4589;48.690;8.952;2023-03-02T18:38:26;2.30;99.90
9107;DHT22;4589;48.690;8.952;2023-03-02T18:43:23;2.10;99.90
9107;DHT22;4589;48.690;8.952;2023-03-02T18:45:48;2.00;99.90
9107;DHT22;4589;48.690;8.952;2023-03-02T18:55:33;1.70;99.90
9107;DHT22;4589;48.690;8.952;2023-03-02T19:02:52;1.40;99.90
9107;DHT22;4589;48.690;8.952;2023-03-02T19:07:45;1.30;99.90
9107;DHT22;4589;48.690;8.952;2023-03-02T19:10:12;1.20;99.90
9107;DHT22;4589;48.690;8.952;2023-03-02T19:12:37;1.30;99.90
9107;DHT22;4589;48.690;8.952;2023-03-02T19:15:04;1.10;99.90
9107;DHT22;4589;48.690;8.952;2023-03-02T19:17:30;1.20;99.90
9107;DHT22;4589;48.690;8.952;2023-03-02T19:19:56;0.90;99.90
9107;DHT22;4589;48.690;8.952;2023-03-02T19:27:14;0.90;99.90
9107;DHT22;4589;48.690;8.952;2023-03-02T19:29:40;0.90;99.90
9107;DHT22;4589;48.690;8.952;2023-03-02T19:34:33;0.80;99.90
9107;DHT22;4589;48.690;8.952;2023-03-02T19:41:50;0.90;99.90
9107;DHT22;4589;48.690;8.952;2023-03-02T19:44:16;1.00;99.90
9107;DHT22;4589;48.690;8.952;2023-03-02T19:46:42;0.90;99.90
9107;DHT22;4589;48.690;8.952;2023-03-02T19:51:33;0.90;99.90
9107;DHT22;4589;48.690;8.952;2023-03-02T19:53:59;0.70;99.90
9107;DHT22;4589;48.690;8.952;2023-03-02T19:58:55;0.80;99.90
9107;DHT22;4589;48.690;8.952;2023-03-02T20:01:21;0.50;99.90
9107;DHT22;4589;48.690;8.952;2023-03-02T20:06:20;0.60;99.90
9107;DHT22;4589;48.690;8.952;2023-03-02T20:08:46;0.30;99.90
9107;DHT22;4589;48.690;8.952;2023-03-02T20:16:04;0.30;99.90
9107;DHT22;4589;48.690;8.952;2023-03-02T20:28:16;0.20;99.90
9107;DHT22;4589;48.690;8.952;2023-03-02T20:33:12;0.00;99.90
9107;DHT22;4589;48.690;8.952;2023-03-02T20:35:39;-0.10;99.90
9107;DHT22;4589;48.690;8.952;2023-03-02T20:38:11;0.00;99.90
9107;DHT22;4589;48.690;8.952;2023-03-02T20:43:03;0.10;99.90
9107;DHT22;4589;48.690;8.952;2023-03-02T21:07:31;-0.50;99.90
9107;DHT22;4589;48.690;8.952;2023-03-02T21:10:00;-0.70;99.90
9107;DHT22;4589;48.690;8.952;2023-03-02T21:12:26;-0.80;99.90
9107;DHT22;4589;48.690;8.952;2023-03-02T21:17:18;-1.10;99.90
9107;DHT22;4589;48.690;8.952;2023-03-02T21:27:01;-0.90;99.90
9107;DHT22;4589;48.690;8.952;2023-03-02T21:29:27;-0.80;99.90
9107;DHT22;4589;48.690;8.952;2023-03-02T21:31:53;-1.20;99.90
9107;DHT22;4589;48.690;8.952;2023-03-02T21:34:19;-0.90;99.90
9107;DHT22;4589;48.690;8.952;2023-03-02T21:36:46;-1.10;99.90
9107;DHT22;4589;48.690;8.952;2023-03-02T21:39:13;-1.10;99.90
9107;DHT22;4589;48.690;8.952;2023-03-02T21:41:39;-1.10;99.90
9107;DHT22;4589;48.690;8.952;2023-03-02T21:46:33;-1.10;99.90
9107;DHT22;4589;48.690;8.952;2023-03-02T22:06:06;-0.50;99.90
9107;DHT22;4589;48.690;8.952;2023-03-02T22:16:20;-0.70;99.90
9107;DHT22;4589;48.690;8.952;2023-03-02T22:18:48;-0.60;99.90
9107;DHT22;4589;48.690;8.952;2023-03-02T22:23:51;-0.70;99.90
9107;DHT22;4589;48.690;8.952;2023-03-02T22:26:17;-0.30;99.90
9107;DHT22;4589;48.690;8.952;2023-03-02T22:31:20;-0.50;99.90
9107;DHT22;4589;48.690;8.952;2023-03-02T22:38:41;-0.50;99.90
9107;DHT22;4589;48.690;8.952;2023-03-02T22:48:33;-0.70;99.90
9107;DHT22;4589;48.690;8.952;2023-03-02T22:53:40;-0.60;99.90
9107;DHT22;4589;48.690;8.952;2023-03-02T22:58:47;-0.60;99.90
9107;DHT22;4589;48.690;8.952;2023-03-02T23:03:44;-0.60;99.90
9107;DHT22;4589;48.690;8.952;2023-03-02T23:08:53;-0.60;99.90
9107;DHT22;4589;48.690;8.952;2023-03-02T23:11:20;-0.50;99.90
9107;DHT22;4589;48.690;8.952;2023-03-02T23:16:17;-0.50;99.90
9107;DHT22;4589;48.690;8.952;2023-03-02T23:21:22;-0.50;99.90
9107;DHT22;4589;48.690;8.952;2023-03-02T23:23:48;-0.50;99.90
9107;DHT22;4589;48.690;8.952;2023-03-02T23:26:14;-0.50;99.90
9107;DHT22;4589;48.690;8.952;2023-03-02T23:33:32;-0.60;99.90
9107;DHT22;4589;48.690;8.952;2023-03-02T23:43:16;0.10;99.90
9107;DHT22;4589;48.690;8.952;2023-03-02T23:50:34;-0.20;99.90
9107;DHT22;4589;48.690;8.952;2023-03-02T23:52:59;-0.10;99.90
9107;DHT22;4589;48.690;8.952;2023-03-02T23:55:25;0.10;99.90
9107;DHT22;4589;48.690;8.952;2023-03-02T23:57:51;0.00;99.90
